Terminal Aerodrome Forecast
Issued by NWS Charleston, WV

Current Version | Previous Version | Graphics & Text | Print | Product List | Glossary On
Versions: 1 2 3 4 5 6 7 8 9 10 11 12 13 14 15 16 17 18 19 20 21 22 23 24 25 26 27 28 29
000
FTUS41 KRLX 221509 AAB
TAFBKW
TAF AMD
KBKW 221509Z 2215/2312 14010G15KT P6SM OVC008
     FM221600 13010KT 6SM -SHRA BKN015 OVC035
     FM221900 13010KT P6SM -SHRA OVC020
     FM230200 09008KT 4SM -SHRA BR SCT008 OVC012
     FM230800 08008KT 3SM -SHRA BR OVC008=

USA.gov is the U.S. government's official web portal to all federal, state and local government web resources and services.